Lewisville, ID (83431)

4:31 AM MDT on September 29, 2016 (GMT -0600)
Garfield Area | | Change Station

Elev 4820 ft 43.64 °N, 111.96 °W | Updated 11 seconds ago

Mostly Cloudy
Mostly Cloudy
56.0 °F
Feels Like 56.0 °F
N
7.0
Wind Variable Wind from ENE
Gusts 9.0 mph

Today
High -- | Low -- °F
--% Chance of Precip.
Yesterday
High -- | Low -- °F
Precip. -- in
Pressure 30.06 in
Visibility 10.0 miles
Clouds Mostly Cloudy 11000 ft
Dew Point 47 °F
Humidity 72%
Rainfall 0.00 in
Snow Depth Not available.
7:23 AM 7:11 PM
Waning Crescent, 2% visible
METAR KIDA 290953Z AUTO 07005KT 10SM BKN110 14/08 A3019 RMK AO2 RAE20 SLP179 P0000 T01440083
Pressure 30.06 in
Visibility 10.0 miles
Clouds Mostly Cloudy 11000 ft
Dew Point 47 °F
Humidity 72%
Rainfall 0.00 in
Snow Depth Not available.
7:23 AM 7:11 PM
Waning Crescent, 2% visible
METAR KIDA 290953Z AUTO 07005KT 10SM BKN110 14/08 A3019 RMK AO2 RAE20 SLP179 P0000 T01440083

10-Day Weather Forecast

Almanac

Astronomy

Sep. 29, 2016 Rise Set
Actual Time
Civil Twilight
Nautical Twilight
Astronomical Twilight
Moon
Length of Visible Light
Length of Day
Tomorrow will be .
, % of the Moon is Illuminated

Today's Extremes

State Highs State Lows

Community

WunderPhotos

Upload Photos

1,942,460 photos uploaded!

WunderBlog® & News

Nearby

Air Quality

  Air Quality AQ Index Pollutant
Not available.

Snow Depth

Station Depth Elevation

Earthquake Activity

City Distance Mag. Time & Date
Minimum magnitude displayed is 2.5.

Coastal Water Temperatures

Place Temperature

Stations

Nearby Weather Stations

Station Location Temp. Windchill Dew Point Humidity Wind Precip. Elev Updated Type
                   

Watches & Warnings

There are currently no watches in effect.